Terminal Aerodrome Forecast
Issued by NWS Sioux Falls, SD

Home | Current Version | Previous Version | Graphics & Text | Print | Product List | Glossary Off
Versions: 1 2 3 4 5 6 7 8 9 10 11 12 13 14 15 16 17

721
FTUS43 KFSD 261140
TAFHON
TAF
KHON 261140Z 2612/2712 16008KT P6SM SCT250
     FM261700 17013KT P6SM SCT250
     FM262300 12008KT P6SM BKN250
     FM270300 14005KT P6SM BKN100
      TEMPO 2703/2706 4SM TSRA OVC040CB
     FM270600 12006KT P6SM BKN045=

USA.gov is the U.S. government's official web portal to all federal, state and local government web resources and services.